Cielo Di Vaiano — D5AQ2 — position and weather

sailwx.info

Track history (hours):
 
Tides and Currents Weather Stations Pressure Air Temp Water Temp Dewpoint Dewpoint Depression Visibility Wind Speed Wind Dir Waves Ship Positions

Cielo Di Vaiano

Last reported at 2016-Aug-29 17:33 UTC. Time now 2016-Aug-29 18:02 UTC.
Position N 45°47' E 013°33'.

Length 183 m; draft 7.2 m.

Type: Cargo ship. MMSI: 636015421.

Date/timePositionNaut miles runAvg speedWind from/ knotsBaromVisibWave heightAir tempDewpointWater temp
2016-Aug-29 17:33N 45°47' E 013°33'0 0.0
2016-Aug-29 16:33N 45°47' E 013°33'0 0.0
2016-Aug-29 15:30N 45°47' E 013°33'0 0.0
2016-Aug-29 14:30N 45°47' E 013°33'0 0.0
2016-Aug-29 13:33N 45°47' E 013°33'0 0.0
2016-Aug-29 12:33N 45°47' E 013°33'0 0.0
2016-Aug-29 11:33N 45°47' E 013°33'0 0.0
2016-Aug-29 09:33N 45°47' E 013°33'0 0.0
2016-Aug-29 08:12N 45°47' E 013°33'0 0.0
2016-Aug-29 07:33N 45°47' E 013°33'0 0.0
2016-Aug-28 21:18N 45°47' E 013°33'0 0.0
2016-Aug-28 20:24N 45°47' E 013°33'0 0.0
2016-Aug-28 19:30N 45°47' E 013°33'0 0.0
2016-Aug-28 14:33N 45°47' E 013°33'0 0.0
2016-Aug-28 13:33N 45°47' E 013°33'0 0.0
2016-Aug-28 12:33N 45°47' E 013°33'0 0.0
2016-Aug-28 11:30N 45°47' E 013°33'0 0.0
2016-Aug-28 07:30N 45°47' E 013°33'4 3.0
2016-Aug-28 06:12N 45°44' E 013°37'9 5.2
2016-Aug-28 04:33N 45°36' E 013°34'8 8.2
2016-Aug-28 03:33N 45°32' E 013°24'9 8.9
2016-Aug-28 02:34N 45°26' E 013°14'1111.4
2016-Aug-28 01:34N 45°15' E 013°12'1312.8
2016-Aug-28 00:33N 45°03' E 013°18'1312.6
2016-Aug-27 23:33N 44°52' E 013°27'1212.2
2016-Aug-27 22:33N 44°41' E 013°36'1212.3
2016-Aug-27 21:33N 44°31' E 013°46'1212.2
2016-Aug-27 20:34N 44°21' E 013°55'1312.7
2016-Aug-27 19:33N 44°10' E 014°05'6312.6
2016-Aug-27 14:32N 43°21' E 015°00'1212.6
2016-Aug-27 13:33N 43°11' E 015°10'19012.4
2016-Aug-26 22:18N 41°03' E 018°19'22211.2
2016-Aug-26 02:33N 37°50' E 015°56'1212.6
2016-Aug-26 01:33N 37°53' E 015°41'1211.9
2016-Aug-26 00:33N 38°03' E 015°34'1212.2
2016-Aug-25 23:34N 38°15' E 015°38'1211.8
2016-Aug-25 22:33N 38°27' E 015°36'1313.4
2016-Aug-25 21:33N 38°39' E 015°29'1313.2
2016-Aug-25 20:33N 38°51' E 015°22'1312.8
2016-Aug-25 19:33N 39°00' E 015°11'1313.2
2016-Aug-25 18:32N 39°10' E 014°58'1413.4
2016-Aug-25 17:31N 39°19' E 014°46'1313.2
2016-Aug-25 16:32N 39°28' E 014°34'1413.3
2016-Aug-25 15:29N 39°38' E 014°20'1213.4
2016-Aug-25 14:33N 39°46' E 014°09'1313.3
2016-Aug-25 13:33N 39°56' E 013°56'1313.1
2016-Aug-25 12:33N 40°05' E 013°44'1313.1
2016-Aug-25 11:33N 40°14' E 013°32'21713.4
2016-Aug-24 19:21N 42°43' E 010°02'1114.0
2016-Aug-24 18:33N 42°54' E 010°03'1515.0
2016-Aug-24 17:33N 43°09' E 010°03'1515.0
2016-Aug-24 16:34N 43°24' E 010°04'1514.9
2016-Aug-24 15:34N 43°39' E 010°04'1514.7
2016-Aug-24 14:34N 43°54' E 010°03'8 6.6
2016-Aug-24 13:23N 44°02' E 010°03'0 0.0
2016-Aug-24 12:32N 44°02' E 010°03'0 0.0
2016-Aug-24 10:08N 44°02' E 010°03'0 0.0
2016-Aug-24 09:32N 44°02' E 010°03'0 0.0
2016-Aug-24 08:20N 44°02' E 010°03'0 0.0
2016-Aug-24 07:32N 44°02' E 010°03'0 0.0
2016-Aug-24 06:23N 44°02' E 010°03'0 0.0
2016-Aug-24 04:32N 44°02' E 010°03'0 0.0
2016-Aug-24 03:32N 44°02' E 010°03'0 0.0
2016-Aug-24 02:29N 44°02' E 010°03'0 0.0
2016-Aug-24 01:32N 44°02' E 010°03'0 0.0
2016-Aug-24 00:29N 44°02' E 010°03'0 0.0
2016-Aug-23 23:32N 44°02' E 010°03'0 0.0
2016-Aug-23 22:32N 44°02' E 010°03'0 0.0
2016-Aug-23 21:32N 44°02' E 010°03'0 0.0
2016-Aug-23 20:32N 44°02' E 010°03'0 0.0
2016-Aug-23 19:32N 44°02' E 010°03'0 0.0
2016-Aug-23 18:32N 44°02' E 010°03'0 0.0
2016-Aug-23 17:29N 44°02' E 010°03'0 0.0
2016-Aug-23 16:32N 44°02' E 010°03'0 0.0
2016-Aug-23 14:29N 44°02' E 010°03'0 0.0
2016-Aug-23 13:32N 44°02' E 010°03'0 0.0
2016-Aug-23 12:32N 44°02' E 010°03'0 0.0
2016-Aug-23 11:26N 44°02' E 010°03'0 0.0
2016-Aug-23 10:32N 44°02' E 010°03'0 0.0
2016-Aug-23 09:32N 44°02' E 010°03'0 0.0
2016-Aug-23 07:32N 44°02' E 010°03'0 0.0
2016-Aug-23 06:20N 44°02' E 010°03'0 0.0
2016-Aug-23 05:32N 44°02' E 010°03'0 0.4
2016-Aug-23 04:33N 44°01' E 010°03'1 1.1
2016-Aug-23 03:29N 44°01' E 010°01'0 0.0
2016-Aug-23 02:32N 44°01' E 010°01'0 0.0
2016-Aug-23 01:32N 44°01' E 010°01'0 0.0
2016-Aug-23 00:32N 44°01' E 010°01'0 0.0
2016-Aug-22 23:32N 44°01' E 010°01'0 0.1
2016-Aug-22 22:32N 44°01' E 010°01'0 0.0
2016-Aug-22 21:29N 44°01' E 010°01'0 0.0
2016-Aug-22 20:32N 44°01' E 010°01'3 2.8
2016-Aug-22 19:34N 43°58' E 010°02'1312.6
2016-Aug-22 18:33N 43°46' E 010°06'1313.2
2016-Aug-22 17:34N 43°33' E 010°05'9 9.1
2016-Aug-22 16:34N 43°33' E 010°18'0 0.3
2016-Aug-22 15:32N 43°33' E 010°18'0 0.0
2016-Aug-22 14:23N 43°33' E 010°18'0 0.0
2016-Aug-22 13:32N 43°33' E 010°18'0 0.0
2016-Aug-22 12:32N 43°33' E 010°18'0 0.0
2016-Aug-22 11:32N 43°33' E 010°18'0 0.0
2016-Aug-22 10:29N 43°33' E 010°18'0 0.0
2016-Aug-22 09:32N 43°33' E 010°18'0 0.0
2016-Aug-22 08:32N 43°33' E 010°18'0 0.0
2016-Aug-22 07:32N 43°33' E 010°18'0 0.0
2016-Aug-22 06:32N 43°33' E 010°18'0 0.0
2016-Aug-22 05:29N 43°33' E 010°18'0 0.0
2016-Aug-22 04:32N 43°33' E 010°18'0 0.0
2016-Aug-22 03:32N 43°33' E 010°18'0 0.0
2016-Aug-22 02:32N 43°33' E 010°18'0 0.0
2016-Aug-22 01:32N 43°33' E 010°18'0 0.0
2016-Aug-22 00:29N 43°33' E 010°18'0 0.0
2016-Aug-21 23:29N 43°33' E 010°18'0 0.0
2016-Aug-21 22:32N 43°33' E 010°18'0 0.0
2016-Aug-21 21:32N 43°33' E 010°18'0 0.0
2016-Aug-21 20:32N 43°33' E 010°18'0 0.0
2016-Aug-21 19:32N 43°33' E 010°18'0 0.0
2016-Aug-21 18:32N 43°33' E 010°18'0 0.0
2016-Aug-21 17:32N 43°33' E 010°18'0 0.0
2016-Aug-21 16:32N 43°33' E 010°18'0 0.0
2016-Aug-21 15:32N 43°33' E 010°18'0 0.0
2016-Aug-21 14:32N 43°33' E 010°18'0 0.0
2016-Aug-21 13:32N 43°33' E 010°18'0 0.0
2016-Aug-21 12:32N 43°33' E 010°18'0 0.0
2016-Aug-21 11:32N 43°33' E 010°18'0 0.0
2016-Aug-21 10:32N 43°33' E 010°18'0 0.0
2016-Aug-21 09:32N 43°33' E 010°18'0 0.0
2016-Aug-21 08:32N 43°33' E 010°18'0 0.0
2016-Aug-21 07:32N 43°33' E 010°18'0 0.0
2016-Aug-21 06:29N 43°33' E 010°18'0 0.0
2016-Aug-21 05:32N 43°33' E 010°18'0 0.0
2016-Aug-21 04:32N 43°33' E 010°18'0 0.1
2016-Aug-21 03:32N 43°33' E 010°18'0 0.0
2016-Aug-21 02:32N 43°33' E 010°18'0 0.0
2016-Aug-21 01:32N 43°33' E 010°18'0 0.0
2016-Aug-21 00:32N 43°33' E 010°18'0 0.0
2016-Aug-20 23:32N 43°33' E 010°18'0 0.0
2016-Aug-20 22:32N 43°33' E 010°18'0 0.0
2016-Aug-20 21:32N 43°33' E 010°18'0 0.0
2016-Aug-20 20:32N 43°33' E 010°18'0 0.0
2016-Aug-20 19:32N 43°33' E 010°18'0 0.0
2016-Aug-20 18:29N 43°33' E 010°18'0 0.0
2016-Aug-20 17:29N 43°33' E 010°18'0 0.0
2016-Aug-20 16:32N 43°33' E 010°18'0 0.0
2016-Aug-20 15:32N 43°33' E 010°18'0 0.0
2016-Aug-20 14:32N 43°33' E 010°18'0 0.0
2016-Aug-20 13:32N 43°33' E 010°18'0 0.0
2016-Aug-20 12:32N 43°33' E 010°18'0 0.0
2016-Aug-20 11:32N 43°33' E 010°18'0 0.0
2016-Aug-20 10:32N 43°33' E 010°18'0 0.0
2016-Aug-20 09:32N 43°33' E 010°18'0 0.0
2016-Aug-20 08:32N 43°33' E 010°18'0 0.0
2016-Aug-20 07:32N 43°33' E 010°18'0 0.0
2016-Aug-20 06:32N 43°33' E 010°18'0 0.0
2016-Aug-20 05:32N 43°33' E 010°18'0 0.0
2016-Aug-20 04:32N 43°33' E 010°18'0 0.0
2016-Aug-20 03:32N 43°33' E 010°18'0 0.1
2016-Aug-20 02:33N 43°33' E 010°18'5 5.5
2016-Aug-20 01:33N 43°29' E 010°13'1312.9
2016-Aug-20 00:33N 43°20' E 009°60'1313.4
2016-Aug-19 23:33N 43°15' E 009°43'1413.8
2016-Aug-19 22:33N 43°10' E 009°25'1414.3
2016-Aug-19 21:34N 43°05' E 009°07'1514.5
2016-Aug-19 20:33N 42°60' E 008°48'1514.5
2016-Aug-19 19:33N 42°55' E 008°30'1514.8
2016-Aug-19 18:34N 42°50' E 008°11'1514.6
2016-Aug-19 17:34N 42°45' E 007°52'  
Track history (hours):
 
Tides and Currents Weather Stations Pressure Air Temp Water Temp Dewpoint Dewpoint Depression Visibility Wind Speed Wind Dir Waves Ship Positions

Cielo Di Vaiano

Last reported at 2016-Aug-29 17:33 UTC. Time now 2016-Aug-29 18:02 UTC.
Position N 45°47' E 013°33'.

Length 183 m; draft 7.2 m.

Type: Cargo ship. MMSI: 636015421.

Date/timePositionNaut miles runAvg speedWind from/ knotsBaromVisibWave heightAir tempDewpointWater temp
2016-Aug-29 17:33N 45°47' E 013°33'0 0.0
2016-Aug-29 16:33N 45°47' E 013°33'0 0.0
2016-Aug-29 15:30N 45°47' E 013°33'0 0.0
2016-Aug-29 14:30N 45°47' E 013°33'0 0.0
2016-Aug-29 13:33N 45°47' E 013°33'0 0.0
2016-Aug-29 12:33N 45°47' E 013°33'0 0.0
2016-Aug-29 11:33N 45°47' E 013°33'0 0.0
2016-Aug-29 09:33N 45°47' E 013°33'0 0.0
2016-Aug-29 08:12N 45°47' E 013°33'0 0.0
2016-Aug-29 07:33N 45°47' E 013°33'0 0.0
2016-Aug-28 21:18N 45°47' E 013°33'0 0.0
2016-Aug-28 20:24N 45°47' E 013°33'0 0.0
2016-Aug-28 19:30N 45°47' E 013°33'0 0.0
2016-Aug-28 14:33N 45°47' E 013°33'0 0.0
2016-Aug-28 13:33N 45°47' E 013°33'0 0.0
2016-Aug-28 12:33N 45°47' E 013°33'0 0.0
2016-Aug-28 11:30N 45°47' E 013°33'0 0.0
2016-Aug-28 07:30N 45°47' E 013°33'4 3.0
2016-Aug-28 06:12N 45°44' E 013°37'9 5.2
2016-Aug-28 04:33N 45°36' E 013°34'8 8.2
2016-Aug-28 03:33N 45°32' E 013°24'9 8.9
2016-Aug-28 02:34N 45°26' E 013°14'1111.4
2016-Aug-28 01:34N 45°15' E 013°12'1312.8
2016-Aug-28 00:33N 45°03' E 013°18'1312.6
2016-Aug-27 23:33N 44°52' E 013°27'1212.2
2016-Aug-27 22:33N 44°41' E 013°36'1212.3
2016-Aug-27 21:33N 44°31' E 013°46'1212.2
2016-Aug-27 20:34N 44°21' E 013°55'1312.7
2016-Aug-27 19:33N 44°10' E 014°05'6312.6
2016-Aug-27 14:32N 43°21' E 015°00'1212.6
2016-Aug-27 13:33N 43°11' E 015°10'19012.4
2016-Aug-26 22:18N 41°03' E 018°19'22211.2
2016-Aug-26 02:33N 37°50' E 015°56'1212.6
2016-Aug-26 01:33N 37°53' E 015°41'1211.9
2016-Aug-26 00:33N 38°03' E 015°34'1212.2
2016-Aug-25 23:34N 38°15' E 015°38'1211.8
2016-Aug-25 22:33N 38°27' E 015°36'1313.4
2016-Aug-25 21:33N 38°39' E 015°29'1313.2
2016-Aug-25 20:33N 38°51' E 015°22'1312.8
2016-Aug-25 19:33N 39°00' E 015°11'1313.2
2016-Aug-25 18:32N 39°10' E 014°58'1413.4
2016-Aug-25 17:31N 39°19' E 014°46'1313.2
2016-Aug-25 16:32N 39°28' E 014°34'1413.3
2016-Aug-25 15:29N 39°38' E 014°20'1213.4
2016-Aug-25 14:33N 39°46' E 014°09'1313.3
2016-Aug-25 13:33N 39°56' E 013°56'1313.1
2016-Aug-25 12:33N 40°05' E 013°44'1313.1
2016-Aug-25 11:33N 40°14' E 013°32'21713.4
2016-Aug-24 19:21N 42°43' E 010°02'1114.0
2016-Aug-24 18:33N 42°54' E 010°03'1515.0
2016-Aug-24 17:33N 43°09' E 010°03'1515.0
2016-Aug-24 16:34N 43°24' E 010°04'1514.9
2016-Aug-24 15:34N 43°39' E 010°04'1514.7
2016-Aug-24 14:34N 43°54' E 010°03'8 6.6
2016-Aug-24 13:23N 44°02' E 010°03'0 0.0
2016-Aug-24 12:32N 44°02' E 010°03'0 0.0
2016-Aug-24 10:08N 44°02' E 010°03'0 0.0
2016-Aug-24 09:32N 44°02' E 010°03'0 0.0
2016-Aug-24 08:20N 44°02' E 010°03'0 0.0
2016-Aug-24 07:32N 44°02' E 010°03'0 0.0
2016-Aug-24 06:23N 44°02' E 010°03'0 0.0
2016-Aug-24 04:32N 44°02' E 010°03'0 0.0
2016-Aug-24 03:32N 44°02' E 010°03'0 0.0
2016-Aug-24 02:29N 44°02' E 010°03'0 0.0
2016-Aug-24 01:32N 44°02' E 010°03'0 0.0
2016-Aug-24 00:29N 44°02' E 010°03'0 0.0
2016-Aug-23 23:32N 44°02' E 010°03'0 0.0
2016-Aug-23 22:32N 44°02' E 010°03'0 0.0
2016-Aug-23 21:32N 44°02' E 010°03'0 0.0
2016-Aug-23 20:32N 44°02' E 010°03'0 0.0
2016-Aug-23 19:32N 44°02' E 010°03'0 0.0
2016-Aug-23 18:32N 44°02' E 010°03'0 0.0
2016-Aug-23 17:29N 44°02' E 010°03'0 0.0
2016-Aug-23 16:32N 44°02' E 010°03'0 0.0
2016-Aug-23 14:29N 44°02' E 010°03'0 0.0
2016-Aug-23 13:32N 44°02' E 010°03'0 0.0
2016-Aug-23 12:32N 44°02' E 010°03'0 0.0
2016-Aug-23 11:26N 44°02' E 010°03'0 0.0
2016-Aug-23 10:32N 44°02' E 010°03'0 0.0
2016-Aug-23 09:32N 44°02' E 010°03'0 0.0
2016-Aug-23 07:32N 44°02' E 010°03'0 0.0
2016-Aug-23 06:20N 44°02' E 010°03'0 0.0
2016-Aug-23 05:32N 44°02' E 010°03'0 0.4
2016-Aug-23 04:33N 44°01' E 010°03'1 1.1
2016-Aug-23 03:29N 44°01' E 010°01'0 0.0
2016-Aug-23 02:32N 44°01' E 010°01'0 0.0
2016-Aug-23 01:32N 44°01' E 010°01'0 0.0
2016-Aug-23 00:32N 44°01' E 010°01'0 0.0
2016-Aug-22 23:32N 44°01' E 010°01'0 0.1
2016-Aug-22 22:32N 44°01' E 010°01'0 0.0
2016-Aug-22 21:29N 44°01' E 010°01'0 0.0
2016-Aug-22 20:32N 44°01' E 010°01'3 2.8
2016-Aug-22 19:34N 43°58' E 010°02'1312.6
2016-Aug-22 18:33N 43°46' E 010°06'1313.2
2016-Aug-22 17:34N 43°33' E 010°05'9 9.1
2016-Aug-22 16:34N 43°33' E 010°18'0 0.3
2016-Aug-22 15:32N 43°33' E 010°18'0 0.0
2016-Aug-22 14:23N 43°33' E 010°18'0 0.0
2016-Aug-22 13:32N 43°33' E 010°18'0 0.0
2016-Aug-22 12:32N 43°33' E 010°18'0 0.0
2016-Aug-22 11:32N 43°33' E 010°18'0 0.0
2016-Aug-22 10:29N 43°33' E 010°18'0 0.0
2016-Aug-22 09:32N 43°33' E 010°18'0 0.0
2016-Aug-22 08:32N 43°33' E 010°18'0 0.0
2016-Aug-22 07:32N 43°33' E 010°18'0 0.0
2016-Aug-22 06:32N 43°33' E 010°18'0 0.0
2016-Aug-22 05:29N 43°33' E 010°18'0 0.0
2016-Aug-22 04:32N 43°33' E 010°18'0 0.0
2016-Aug-22 03:32N 43°33' E 010°18'0 0.0
2016-Aug-22 02:32N 43°33' E 010°18'0 0.0
2016-Aug-22 01:32N 43°33' E 010°18'0 0.0
2016-Aug-22 00:29N 43°33' E 010°18'0 0.0
2016-Aug-21 23:29N 43°33' E 010°18'0 0.0
2016-Aug-21 22:32N 43°33' E 010°18'0 0.0
2016-Aug-21 21:32N 43°33' E 010°18'0 0.0
2016-Aug-21 20:32N 43°33' E 010°18'0 0.0
2016-Aug-21 19:32N 43°33' E 010°18'0 0.0
2016-Aug-21 18:32N 43°33' E 010°18'0 0.0
2016-Aug-21 17:32N 43°33' E 010°18'0 0.0
2016-Aug-21 16:32N 43°33' E 010°18'0 0.0
2016-Aug-21 15:32N 43°33' E 010°18'0 0.0
2016-Aug-21 14:32N 43°33' E 010°18'0 0.0
2016-Aug-21 13:32N 43°33' E 010°18'0 0.0
2016-Aug-21 12:32N 43°33' E 010°18'0 0.0
2016-Aug-21 11:32N 43°33' E 010°18'0 0.0
2016-Aug-21 10:32N 43°33' E 010°18'0 0.0
2016-Aug-21 09:32N 43°33' E 010°18'0 0.0
2016-Aug-21 08:32N 43°33' E 010°18'0 0.0
2016-Aug-21 07:32N 43°33' E 010°18'0 0.0
2016-Aug-21 06:29N 43°33' E 010°18'0 0.0
2016-Aug-21 05:32N 43°33' E 010°18'0 0.0
2016-Aug-21 04:32N 43°33' E 010°18'0 0.1
2016-Aug-21 03:32N 43°33' E 010°18'0 0.0
2016-Aug-21 02:32N 43°33' E 010°18'0 0.0
2016-Aug-21 01:32N 43°33' E 010°18'0 0.0
2016-Aug-21 00:32N 43°33' E 010°18'0 0.0
2016-Aug-20 23:32N 43°33' E 010°18'0 0.0
2016-Aug-20 22:32N 43°33' E 010°18'0 0.0
2016-Aug-20 21:32N 43°33' E 010°18'0 0.0
2016-Aug-20 20:32N 43°33' E 010°18'0 0.0
2016-Aug-20 19:32N 43°33' E 010°18'0 0.0
2016-Aug-20 18:29N 43°33' E 010°18'0 0.0
2016-Aug-20 17:29N 43°33' E 010°18'0 0.0
2016-Aug-20 16:32N 43°33' E 010°18'0 0.0
2016-Aug-20 15:32N 43°33' E 010°18'0 0.0
2016-Aug-20 14:32N 43°33' E 010°18'0 0.0
2016-Aug-20 13:32N 43°33' E 010°18'0 0.0
2016-Aug-20 12:32N 43°33' E 010°18'0 0.0
2016-Aug-20 11:32N 43°33' E 010°18'0 0.0
2016-Aug-20 10:32N 43°33' E 010°18'0 0.0
2016-Aug-20 09:32N 43°33' E 010°18'0 0.0
2016-Aug-20 08:32N 43°33' E 010°18'0 0.0
2016-Aug-20 07:32N 43°33' E 010°18'0 0.0
2016-Aug-20 06:32N 43°33' E 010°18'0 0.0
2016-Aug-20 05:32N 43°33' E 010°18'0 0.0
2016-Aug-20 04:32N 43°33' E 010°18'0 0.0
2016-Aug-20 03:32N 43°33' E 010°18'0 0.1
2016-Aug-20 02:33N 43°33' E 010°18'5 5.5
2016-Aug-20 01:33N 43°29' E 010°13'1312.9
2016-Aug-20 00:33N 43°20' E 009°60'1313.4
2016-Aug-19 23:33N 43°15' E 009°43'1413.8
2016-Aug-19 22:33N 43°10' E 009°25'1414.3
2016-Aug-19 21:34N 43°05' E 009°07'1514.5
2016-Aug-19 20:33N 42°60' E 008°48'1514.5
2016-Aug-19 19:33N 42°55' E 008°30'1514.8
2016-Aug-19 18:34N 42°50' E 008°11'1514.6
2016-Aug-19 17:34N 42°45' E 007°52'  

Dump ship's entire track history